sensor_id;sensor_type;location;lat;lon;timestamp;P1;durP1;ratioP1;P2;durP2;ratioP2
46643;SDS011;32371;51.032;5.816;2024-01-06T00:00:29;8.70;;;6.00;;
46643;SDS011;32371;51.032;5.816;2024-01-06T00:02:54;12.43;;;6.25;;
46643;SDS011;32371;51.032;5.816;2024-01-06T00:05:20;10.98;;;6.60;;
46643;SDS011;32371;51.032;5.816;2024-01-06T00:07:45;14.05;;;6.57;;
46643;SDS011;32371;51.032;5.816;2024-01-06T00:10:10;16.20;;;6.63;;
46643;SDS011;32371;51.032;5.816;2024-01-06T00:12:36;13.98;;;7.43;;
46643;SDS011;32371;51.032;5.816;2024-01-06T00:15:01;11.70;;;6.63;;
46643;SDS011;32371;51.032;5.816;2024-01-06T00:17:27;15.77;;;7.88;;
46643;SDS011;32371;51.032;5.816;2024-01-06T00:19:52;15.88;;;7.63;;
46643;SDS011;32371;51.032;5.816;2024-01-06T00:22:18;13.68;;;7.25;;
46643;SDS011;32371;51.032;5.816;2024-01-06T00:24:44;17.25;;;8.13;;
46643;SDS011;32371;51.032;5.816;2024-01-06T00:27:09;19.80;;;7.95;;
46643;SDS011;32371;51.032;5.816;2024-01-06T00:29:34;17.00;;;7.10;;
46643;SDS011;32371;51.032;5.816;2024-01-06T00:32:00;15.48;;;7.78;;
46643;SDS011;32371;51.032;5.816;2024-01-06T00:34:25;19.33;;;7.43;;
46643;SDS011;32371;51.032;5.816;2024-01-06T00:36:50;18.48;;;8.00;;
46643;SDS011;32371;51.032;5.816;2024-01-06T00:39:16;12.07;;;7.47;;
46643;SDS011;32371;51.032;5.816;2024-01-06T00:41:41;15.57;;;6.95;;
46643;SDS011;32371;51.032;5.816;2024-01-06T00:44:07;14.90;;;7.32;;
46643;SDS011;32371;51.032;5.816;2024-01-06T00:46:32;16.27;;;7.00;;
46643;SDS011;32371;51.032;5.816;2024-01-06T00:48:57;14.10;;;7.82;;
46643;SDS011;32371;51.032;5.816;2024-01-06T00:51:23;13.93;;;7.72;;
46643;SDS011;32371;51.032;5.816;2024-01-06T00:53:48;16.08;;;8.52;;
46643;SDS011;32371;51.032;5.816;2024-01-06T00:56:13;11.57;;;7.18;;
46643;SDS011;32371;51.032;5.816;2024-01-06T00:58:39;19.58;;;8.45;;
46643;SDS011;32371;51.032;5.816;2024-01-06T01:01:04;15.68;;;8.15;;
46643;SDS011;32371;51.032;5.816;2024-01-06T01:03:30;15.45;;;7.63;;
46643;SDS011;32371;51.032;5.816;2024-01-06T01:05:55;23.92;;;9.10;;
46643;SDS011;32371;51.032;5.816;2024-01-06T01:08:20;16.35;;;8.38;;
46643;SDS011;32371;51.032;5.816;2024-01-06T01:10:46;16.13;;;7.80;;
46643;SDS011;32371;51.032;5.816;2024-01-06T01:13:11;18.27;;;7.95;;
46643;SDS011;32371;51.032;5.816;2024-01-06T01:15:36;32.08;;;9.70;;
46643;SDS011;32371;51.032;5.816;2024-01-06T01:18:02;17.52;;;8.45;;
46643;SDS011;32371;51.032;5.816;2024-01-06T01:20:27;15.35;;;8.23;;
46643;SDS011;32371;51.032;5.816;2024-01-06T01:22:53;16.10;;;7.88;;
46643;SDS011;32371;51.032;5.816;2024-01-06T01:25:18;14.48;;;7.93;;
46643;SDS011;32371;51.032;5.816;2024-01-06T01:27:43;18.77;;;8.23;;
46643;SDS011;32371;51.032;5.816;2024-01-06T01:30:09;19.33;;;8.55;;
46643;SDS011;32371;51.032;5.816;2024-01-06T01:32:34;15.30;;;8.55;;
46643;SDS011;32371;51.032;5.816;2024-01-06T01:35:00;13.73;;;7.65;;
46643;SDS011;32371;51.032;5.816;2024-01-06T01:37:25;13.38;;;6.82;;
46643;SDS011;32371;51.032;5.816;2024-01-06T01:39:51;17.85;;;7.50;;
46643;SDS011;32371;51.032;5.816;2024-01-06T01:42:16;15.45;;;8.25;;
46643;SDS011;32371;51.032;5.816;2024-01-06T01:44:41;17.33;;;8.40;;
46643;SDS011;32371;51.032;5.816;2024-01-06T01:47:07;17.52;;;7.60;;
46643;SDS011;32371;51.032;5.816;2024-01-06T01:49:32;17.98;;;7.60;;
46643;SDS011;32371;51.032;5.816;2024-01-06T01:51:58;17.23;;;8.18;;
46643;SDS011;32371;51.032;5.816;2024-01-06T01:54:23;16.77;;;7.63;;
46643;SDS011;32371;51.032;5.816;2024-01-06T01:56:49;18.48;;;7.95;;
46643;SDS011;32371;51.032;5.816;2024-01-06T01:59:14;14.57;;;7.13;;
46643;SDS011;32371;51.032;5.816;2024-01-06T02:01:43;11.13;;;6.97;;
46643;SDS011;32371;51.032;5.816;2024-01-06T02:04:09;9.95;;;5.60;;
46643;SDS011;32371;51.032;5.816;2024-01-06T02:06:34;10.32;;;4.85;;
46643;SDS011;32371;51.032;5.816;2024-01-06T02:09:00;10.65;;;5.10;;
46643;SDS011;32371;51.032;5.816;2024-01-06T02:11:25;8.80;;;5.10;;
46643;SDS011;32371;51.032;5.816;2024-01-06T02:13:51;8.68;;;4.45;;
46643;SDS011;32371;51.032;5.816;2024-01-06T02:16:16;11.85;;;4.90;;
46643;SDS011;32371;51.032;5.816;2024-01-06T02:18:41;10.55;;;4.75;;
46643;SDS011;32371;51.032;5.816;2024-01-06T02:21:07;12.63;;;5.80;;
46643;SDS011;32371;51.032;5.816;2024-01-06T02:23:34;10.20;;;4.85;;
46643;SDS011;32371;51.032;5.816;2024-01-06T02:26:01;9.35;;;5.95;;
46643;SDS011;32371;51.032;5.816;2024-01-06T02:28:26;13.23;;;5.15;;
46643;SDS011;32371;51.032;5.816;2024-01-06T02:30:52;9.23;;;5.15;;
46643;SDS011;32371;51.032;5.816;2024-01-06T02:33:17;9.10;;;4.88;;
46643;SDS011;32371;51.032;5.816;2024-01-06T02:35:44;12.07;;;5.63;;
46643;SDS011;32371;51.032;5.816;2024-01-06T02:38:10;10.02;;;4.57;;
46643;SDS011;32371;51.032;5.816;2024-01-06T02:40:36;11.50;;;5.40;;
46643;SDS011;32371;51.032;5.816;2024-01-06T02:43:01;14.43;;;5.90;;
46643;SDS011;32371;51.032;5.816;2024-01-06T02:45:26;12.05;;;5.50;;
46643;SDS011;32371;51.032;5.816;2024-01-06T02:47:52;11.10;;;5.57;;
46643;SDS011;32371;51.032;5.816;2024-01-06T02:50:18;14.50;;;5.68;;
46643;SDS011;32371;51.032;5.816;2024-01-06T02:52:43;11.88;;;5.75;;
46643;SDS011;32371;51.032;5.816;2024-01-06T02:55:10;11.98;;;5.43;;
46643;SDS011;32371;51.032;5.816;2024-01-06T02:57:36;11.18;;;5.60;;
46643;SDS011;32371;51.032;5.816;2024-01-06T03:00:02;17.20;;;6.38;;
46643;SDS011;32371;51.032;5.816;2024-01-06T03:02:28;12.15;;;5.57;;
46643;SDS011;32371;51.032;5.816;2024-01-06T03:04:54;14.27;;;6.43;;
46643;SDS011;32371;51.032;5.816;2024-01-06T03:07:20;15.95;;;6.20;;
46643;SDS011;32371;51.032;5.816;2024-01-06T03:09:45;13.93;;;6.57;;
46643;SDS011;32371;51.032;5.816;2024-01-06T03:12:11;14.13;;;6.13;;
46643;SDS011;32371;51.032;5.816;2024-01-06T03:14:37;16.63;;;5.68;;
46643;SDS011;32371;51.032;5.816;2024-01-06T03:17:02;12.02;;;6.13;;
46643;SDS011;32371;51.032;5.816;2024-01-06T03:19:29;19.70;;;6.82;;
46643;SDS011;32371;51.032;5.816;2024-01-06T03:21:55;16.35;;;6.22;;
46643;SDS011;32371;51.032;5.816;2024-01-06T03:24:24;11.40;;;6.80;;
46643;SDS011;32371;51.032;5.816;2024-01-06T03:26:50;14.55;;;7.10;;
46643;SDS011;32371;51.032;5.816;2024-01-06T03:29:16;12.23;;;6.40;;
46643;SDS011;32371;51.032;5.816;2024-01-06T03:31:42;14.23;;;7.43;;
46643;SDS011;32371;51.032;5.816;2024-01-06T03:34:08;13.15;;;6.82;;
46643;SDS011;32371;51.032;5.816;2024-01-06T03:36:35;15.05;;;7.72;;
46643;SDS011;32371;51.032;5.816;2024-01-06T03:39:00;12.35;;;6.72;;
46643;SDS011;32371;51.032;5.816;2024-01-06T03:41:26;17.92;;;7.95;;
46643;SDS011;32371;51.032;5.816;2024-01-06T03:43:51;12.40;;;6.15;;
46643;SDS011;32371;51.032;5.816;2024-01-06T03:46:16;14.23;;;6.47;;
46643;SDS011;32371;51.032;5.816;2024-01-06T03:48:42;18.75;;;7.20;;
46643;SDS011;32371;51.032;5.816;2024-01-06T03:51:07;12.68;;;6.22;;
46643;SDS011;32371;51.032;5.816;2024-01-06T03:53:33;14.70;;;6.85;;
46643;SDS011;32371;51.032;5.816;2024-01-06T03:55:58;14.90;;;6.78;;
46643;SDS011;32371;51.032;5.816;2024-01-06T03:58:23;16.30;;;7.80;;
46643;SDS011;32371;51.032;5.816;2024-01-06T04:00:49;13.07;;;6.85;;
46643;SDS011;32371;51.032;5.816;2024-01-06T04:03:14;16.13;;;6.97;;
46643;SDS011;32371;51.032;5.816;2024-01-06T04:05:39;15.90;;;7.30;;
46643;SDS011;32371;51.032;5.816;2024-01-06T04:08:05;15.68;;;7.55;;
46643;SDS011;32371;51.032;5.816;2024-01-06T04:10:30;16.38;;;7.07;;
46643;SDS011;32371;51.032;5.816;2024-01-06T04:12:56;13.93;;;6.55;;
46643;SDS011;32371;51.032;5.816;2024-01-06T04:15:21;13.85;;;7.05;;
46643;SDS011;32371;51.032;5.816;2024-01-06T04:17:48;15.15;;;7.93;;
46643;SDS011;32371;51.032;5.816;2024-01-06T04:20:14;16.33;;;6.95;;
46643;SDS011;32371;51.032;5.816;2024-01-06T04:22:39;18.33;;;7.97;;
46643;SDS011;32371;51.032;5.816;2024-01-06T04:25:04;15.00;;;6.10;;
46643;SDS011;32371;51.032;5.816;2024-01-06T04:27:30;16.58;;;7.13;;
46643;SDS011;32371;51.032;5.816;2024-01-06T04:29:56;15.48;;;7.28;;
46643;SDS011;32371;51.032;5.816;2024-01-06T04:32:21;20.13;;;8.15;;
46643;SDS011;32371;51.032;5.816;2024-01-06T04:34:47;18.63;;;7.95;;
46643;SDS011;32371;51.032;5.816;2024-01-06T04:37:12;14.07;;;6.55;;
46643;SDS011;32371;51.032;5.816;2024-01-06T04:39:37;16.80;;;6.28;;
46643;SDS011;32371;51.032;5.816;2024-01-06T04:42:03;15.23;;;6.35;;
46643;SDS011;32371;51.032;5.816;2024-01-06T04:44:29;12.68;;;6.35;;
46643;SDS011;32371;51.032;5.816;2024-01-06T04:46:55;12.00;;;6.35;;
46643;SDS011;32371;51.032;5.816;2024-01-06T04:49:20;13.93;;;6.43;;
46643;SDS011;32371;51.032;5.816;2024-01-06T04:51:45;16.73;;;6.43;;
46643;SDS011;32371;51.032;5.816;2024-01-06T04:54:12;18.40;;;7.95;;
46643;SDS011;32371;51.032;5.816;2024-01-06T04:56:37;19.92;;;6.80;;
46643;SDS011;32371;51.032;5.816;2024-01-06T04:59:03;12.50;;;6.43;;
46643;SDS011;32371;51.032;5.816;2024-01-06T05:01:28;13.25;;;7.35;;
46643;SDS011;32371;51.032;5.816;2024-01-06T05:03:53;14.35;;;6.63;;
46643;SDS011;32371;51.032;5.816;2024-01-06T05:06:19;14.73;;;6.82;;
46643;SDS011;32371;51.032;5.816;2024-01-06T05:08:44;10.75;;;5.63;;
46643;SDS011;32371;51.032;5.816;2024-01-06T05:11:10;12.82;;;5.90;;
46643;SDS011;32371;51.032;5.816;2024-01-06T05:13:36;10.27;;;5.30;;
46643;SDS011;32371;51.032;5.816;2024-01-06T05:16:02;11.65;;;5.63;;
46643;SDS011;32371;51.032;5.816;2024-01-06T05:18:27;12.07;;;6.15;;
46643;SDS011;32371;51.032;5.816;2024-01-06T05:20:53;11.40;;;6.10;;
46643;SDS011;32371;51.032;5.816;2024-01-06T05:23:19;10.95;;;4.95;;
46643;SDS011;32371;51.032;5.816;2024-01-06T05:25:44;14.43;;;6.75;;
46643;SDS011;32371;51.032;5.816;2024-01-06T05:28:10;12.48;;;5.70;;
46643;SDS011;32371;51.032;5.816;2024-01-06T05:30:35;11.80;;;5.43;;
46643;SDS011;32371;51.032;5.816;2024-01-06T05:33:01;10.98;;;5.40;;
46643;SDS011;32371;51.032;5.816;2024-01-06T05:35:27;12.75;;;5.65;;
46643;SDS011;32371;51.032;5.816;2024-01-06T05:37:53;9.65;;;5.57;;
46643;SDS011;32371;51.032;5.816;2024-01-06T05:40:18;11.50;;;5.93;;
46643;SDS011;32371;51.032;5.816;2024-01-06T05:42:43;9.82;;;4.82;;
46643;SDS011;32371;51.032;5.816;2024-01-06T05:45:12;12.98;;;6.05;;
46643;SDS011;32371;51.032;5.816;2024-01-06T05:47:38;13.77;;;5.90;;
46643;SDS011;32371;51.032;5.816;2024-01-06T05:50:03;11.15;;;5.95;;
46643;SDS011;32371;51.032;5.816;2024-01-06T05:52:29;15.32;;;5.38;;
46643;SDS011;32371;51.032;5.816;2024-01-06T05:54:55;11.13;;;5.80;;
46643;SDS011;32371;51.032;5.816;2024-01-06T05:57:20;9.35;;;4.93;;
46643;SDS011;32371;51.032;5.816;2024-01-06T05:59:45;12.18;;;5.45;;
46643;SDS011;32371;51.032;5.816;2024-01-06T06:02:11;9.88;;;5.35;;
46643;SDS011;32371;51.032;5.816;2024-01-06T06:04:36;8.43;;;4.55;;
46643;SDS011;32371;51.032;5.816;2024-01-06T06:07:02;9.38;;;5.20;;
46643;SDS011;32371;51.032;5.816;2024-01-06T06:09:27;10.70;;;4.78;;
46643;SDS011;32371;51.032;5.816;2024-01-06T06:11:53;12.40;;;5.65;;
46643;SDS011;32371;51.032;5.816;2024-01-06T06:14:19;10.35;;;5.25;;
46643;SDS011;32371;51.032;5.816;2024-01-06T06:16:44;10.30;;;5.32;;
46643;SDS011;32371;51.032;5.816;2024-01-06T06:19:10;8.77;;;4.70;;
46643;SDS011;32371;51.032;5.816;2024-01-06T06:21:35;11.35;;;5.20;;
46643;SDS011;32371;51.032;5.816;2024-01-06T06:24:00;11.55;;;5.65;;
46643;SDS011;32371;51.032;5.816;2024-01-06T06:26:27;6.78;;;4.38;;
46643;SDS011;32371;51.032;5.816;2024-01-06T06:28:53;8.73;;;4.78;;
46643;SDS011;32371;51.032;5.816;2024-01-06T06:31:18;8.60;;;4.78;;
46643;SDS011;32371;51.032;5.816;2024-01-06T06:33:44;7.97;;;4.18;;
46643;SDS011;32371;51.032;5.816;2024-01-06T06:36:09;9.13;;;4.65;;
46643;SDS011;32371;51.032;5.816;2024-01-06T06:38:35;13.07;;;4.75;;
46643;SDS011;32371;51.032;5.816;2024-01-06T06:41:01;8.57;;;4.93;;
46643;SDS011;32371;51.032;5.816;2024-01-06T06:43:26;8.00;;;4.60;;
46643;SDS011;32371;51.032;5.816;2024-01-06T06:45:52;9.05;;;5.13;;
46643;SDS011;32371;51.032;5.816;2024-01-06T06:48:17;13.00;;;5.40;;
46643;SDS011;32371;51.032;5.816;2024-01-06T06:50:43;12.05;;;5.18;;
46643;SDS011;32371;51.032;5.816;2024-01-06T06:53:08;10.70;;;4.78;;
46643;SDS011;32371;51.032;5.816;2024-01-06T06:55:34;7.63;;;4.35;;
46643;SDS011;32371;51.032;5.816;2024-01-06T06:57:59;9.43;;;5.05;;
46643;SDS011;32371;51.032;5.816;2024-01-06T07:00:24;8.93;;;4.90;;
46643;SDS011;32371;51.032;5.816;2024-01-06T07:02:50;9.70;;;5.78;;
46643;SDS011;32371;51.032;5.816;2024-01-06T07:05:15;9.52;;;4.43;;
46643;SDS011;32371;51.032;5.816;2024-01-06T07:07:42;9.85;;;4.38;;
46643;SDS011;32371;51.032;5.816;2024-01-06T07:10:11;8.15;;;4.40;;
46643;SDS011;32371;51.032;5.816;2024-01-06T07:12:37;10.88;;;4.72;;
46643;SDS011;32371;51.032;5.816;2024-01-06T07:15:02;8.10;;;4.65;;
46643;SDS011;32371;51.032;5.816;2024-01-06T07:17:28;8.07;;;3.95;;
46643;SDS011;32371;51.032;5.816;2024-01-06T07:19:54;11.32;;;5.10;;
46643;SDS011;32371;51.032;5.816;2024-01-06T07:22:19;8.27;;;3.78;;
46643;SDS011;32371;51.032;5.816;2024-01-06T07:24:45;6.60;;;4.03;;
46643;SDS011;32371;51.032;5.816;2024-01-06T07:27:10;9.68;;;3.65;;
46643;SDS011;32371;51.032;5.816;2024-01-06T07:29:36;7.88;;;4.40;;
46643;SDS011;32371;51.032;5.816;2024-01-06T07:32:02;11.48;;;4.90;;
46643;SDS011;32371;51.032;5.816;2024-01-06T07:34:28;12.05;;;4.75;;
46643;SDS011;32371;51.032;5.816;2024-01-06T07:36:53;9.57;;;4.55;;
46643;SDS011;32371;51.032;5.816;2024-01-06T07:39:19;8.18;;;3.83;;
46643;SDS011;32371;51.032;5.816;2024-01-06T07:41:44;9.70;;;3.60;;
46643;SDS011;32371;51.032;5.816;2024-01-06T07:44:11;12.32;;;4.32;;
46643;SDS011;32371;51.032;5.816;2024-01-06T07:46:37;7.95;;;4.55;;
46643;SDS011;32371;51.032;5.816;2024-01-06T07:49:05;7.38;;;3.75;;
46643;SDS011;32371;51.032;5.816;2024-01-06T07:51:30;7.25;;;3.22;;
46643;SDS011;32371;51.032;5.816;2024-01-06T07:53:56;5.68;;;3.25;;
46643;SDS011;32371;51.032;5.816;2024-01-06T07:56:21;11.55;;;3.72;;
46643;SDS011;32371;51.032;5.816;2024-01-06T07:58:46;5.38;;;3.05;;
46643;SDS011;32371;51.032;5.816;2024-01-06T08:01:12;6.25;;;3.13;;
46643;SDS011;32371;51.032;5.816;2024-01-06T08:03:38;4.72;;;3.15;;
46643;SDS011;32371;51.032;5.816;2024-01-06T08:06:03;4.10;;;2.50;;
46643;SDS011;32371;51.032;5.816;2024-01-06T08:08:29;8.07;;;3.55;;
46643;SDS011;32371;51.032;5.816;2024-01-06T08:10:54;4.90;;;2.83;;
46643;SDS011;32371;51.032;5.816;2024-01-06T08:13:19;4.97;;;2.70;;
46643;SDS011;32371;51.032;5.816;2024-01-06T08:15:45;5.82;;;3.42;;
46643;SDS011;32371;51.032;5.816;2024-01-06T08:18:10;6.25;;;3.08;;
46643;SDS011;32371;51.032;5.816;2024-01-06T08:20:36;5.47;;;3.03;;
46643;SDS011;32371;51.032;5.816;2024-01-06T08:23:01;6.63;;;3.00;;
46643;SDS011;32371;51.032;5.816;2024-01-06T08:25:26;7.10;;;3.38;;
46643;SDS011;32371;51.032;5.816;2024-01-06T08:27:52;8.48;;;3.90;;
46643;SDS011;32371;51.032;5.816;2024-01-06T08:30:18;6.20;;;3.55;;
46643;SDS011;32371;51.032;5.816;2024-01-06T08:32:44;6.07;;;3.42;;
46643;SDS011;32371;51.032;5.816;2024-01-06T08:35:09;4.78;;;3.03;;
46643;SDS011;32371;51.032;5.816;2024-01-06T08:37:35;6.22;;;2.80;;
46643;SDS011;32371;51.032;5.816;2024-01-06T08:40:00;8.30;;;3.33;;
46643;SDS011;32371;51.032;5.816;2024-01-06T08:42:26;6.88;;;3.28;;
46643;SDS011;32371;51.032;5.816;2024-01-06T08:44:51;5.60;;;3.25;;
46643;SDS011;32371;51.032;5.816;2024-01-06T08:47:17;5.68;;;3.40;;
46643;SDS011;32371;51.032;5.816;2024-01-06T08:49:42;6.65;;;3.17;;
46643;SDS011;32371;51.032;5.816;2024-01-06T08:52:07;7.20;;;3.42;;
46643;SDS011;32371;51.032;5.816;2024-01-06T08:54:33;5.63;;;3.10;;
46643;SDS011;32371;51.032;5.816;2024-01-06T08:56:58;7.00;;;4.00;;
46643;SDS011;32371;51.032;5.816;2024-01-06T08:59:23;13.02;;;4.78;;
46643;SDS011;32371;51.032;5.816;2024-01-06T09:01:49;8.70;;;3.47;;
46643;SDS011;32371;51.032;5.816;2024-01-06T09:04:14;10.48;;;4.63;;
46643;SDS011;32371;51.032;5.816;2024-01-06T09:06:40;8.13;;;4.03;;
46643;SDS011;32371;51.032;5.816;2024-01-06T09:09:06;6.45;;;3.92;;
46643;SDS011;32371;51.032;5.816;2024-01-06T09:11:33;5.22;;;3.30;;
46643;SDS011;32371;51.032;5.816;2024-01-06T09:13:58;7.20;;;3.58;;
46643;SDS011;32371;51.032;5.816;2024-01-06T09:16:24;5.55;;;2.65;;
46643;SDS011;32371;51.032;5.816;2024-01-06T09:18:49;8.93;;;3.67;;
46643;SDS011;32371;51.032;5.816;2024-01-06T09:21:15;4.18;;;2.45;;
46643;SDS011;32371;51.032;5.816;2024-01-06T09:23:40;9.13;;;3.95;;
46643;SDS011;32371;51.032;5.816;2024-01-06T09:26:05;6.93;;;3.22;;
46643;SDS011;32371;51.032;5.816;2024-01-06T09:28:31;5.82;;;2.90;;
46643;SDS011;32371;51.032;5.816;2024-01-06T09:30:57;6.30;;;3.42;;
46643;SDS011;32371;51.032;5.816;2024-01-06T09:33:22;6.78;;;3.35;;
46643;SDS011;32371;51.032;5.816;2024-01-06T09:35:48;7.07;;;3.97;;
46643;SDS011;32371;51.032;5.816;2024-01-06T09:38:13;7.70;;;4.07;;
46643;SDS011;32371;51.032;5.816;2024-01-06T09:40:42;5.03;;;2.70;;
46643;SDS011;32371;51.032;5.816;2024-01-06T09:43:08;5.88;;;3.63;;
46643;SDS011;32371;51.032;5.816;2024-01-06T09:45:34;8.13;;;3.75;;
46643;SDS011;32371;51.032;5.816;2024-01-06T09:47:59;6.15;;;3.67;;
46643;SDS011;32371;51.032;5.816;2024-01-06T09:50:42;7.55;;;4.00;;
46643;SDS011;32371;51.032;5.816;2024-01-06T09:53:10;8.57;;;3.67;;
46643;SDS011;32371;51.032;5.816;2024-01-06T09:55:36;5.45;;;3.15;;
46643;SDS011;32371;51.032;5.816;2024-01-06T09:58:02;6.60;;;3.72;;
46643;SDS011;32371;51.032;5.816;2024-01-06T10:00:27;8.18;;;4.15;;
46643;SDS011;32371;51.032;5.816;2024-01-06T10:02:53;7.80;;;4.07;;
46643;SDS011;32371;51.032;5.816;2024-01-06T10:05:20;8.80;;;4.20;;
46643;SDS011;32371;51.032;5.816;2024-01-06T10:07:46;14.77;;;4.35;;
46643;SDS011;32371;51.032;5.816;2024-01-06T10:10:12;9.30;;;4.00;;
46643;SDS011;32371;51.032;5.816;2024-01-06T10:12:39;8.20;;;3.83;;
46643;SDS011;32371;51.032;5.816;2024-01-06T10:15:05;8.77;;;3.95;;
46643;SDS011;32371;51.032;5.816;2024-01-06T10:17:32;9.38;;;4.32;;
46643;SDS011;32371;51.032;5.816;2024-01-06T10:19:57;8.02;;;4.05;;
46643;SDS011;32371;51.032;5.816;2024-01-06T10:22:24;16.05;;;4.88;;
46643;SDS011;32371;51.032;5.816;2024-01-06T10:24:50;9.32;;;4.40;;
46643;SDS011;32371;51.032;5.816;2024-01-06T10:27:15;6.55;;;3.72;;
46643;SDS011;32371;51.032;5.816;2024-01-06T10:29:41;8.02;;;3.92;;
46643;SDS011;32371;51.032;5.816;2024-01-06T10:32:07;9.85;;;4.35;;
46643;SDS011;32371;51.032;5.816;2024-01-06T10:34:33;9.18;;;3.85;;
46643;SDS011;32371;51.032;5.816;2024-01-06T10:36:58;6.35;;;3.17;;
46643;SDS011;32371;51.032;5.816;2024-01-06T10:39:24;6.35;;;3.25;;
46643;SDS011;32371;51.032;5.816;2024-01-06T10:41:49;6.93;;;3.25;;
46643;SDS011;32371;51.032;5.816;2024-01-06T10:44:15;10.20;;;3.50;;
46643;SDS011;32371;51.032;5.816;2024-01-06T10:46:40;8.40;;;3.90;;
46643;SDS011;32371;51.032;5.816;2024-01-06T10:49:06;5.60;;;3.03;;
46643;SDS011;32371;51.032;5.816;2024-01-06T10:51:36;6.70;;;3.38;;
46643;SDS011;32371;51.032;5.816;2024-01-06T10:54:02;5.28;;;2.75;;
46643;SDS011;32371;51.032;5.816;2024-01-06T10:56:29;6.45;;;3.53;;
46643;SDS011;32371;51.032;5.816;2024-01-06T10:58:54;8.32;;;3.22;;
46643;SDS011;32371;51.032;5.816;2024-01-06T11:01:22;8.40;;;3.90;;
46643;SDS011;32371;51.032;5.816;2024-01-06T11:03:49;10.98;;;4.10;;
46643;SDS011;32371;51.032;5.816;2024-01-06T11:06:15;6.35;;;3.67;;
46643;SDS011;32371;51.032;5.816;2024-01-06T11:08:57;7.00;;;3.85;;
46643;SDS011;32371;51.032;5.816;2024-01-06T11:11:27;5.35;;;2.97;;
46643;SDS011;32371;51.032;5.816;2024-01-06T11:13:53;5.82;;;2.78;;
46643;SDS011;32371;51.032;5.816;2024-01-06T11:16:45;6.72;;;3.33;;
46643;SDS011;32371;51.032;5.816;2024-01-06T11:19:41;8.35;;;3.60;;
46643;SDS011;32371;51.032;5.816;2024-01-06T11:22:17;6.82;;;3.42;;
46643;SDS011;32371;51.032;5.816;2024-01-06T11:24:49;6.63;;;3.53;;
46643;SDS011;32371;51.032;5.816;2024-01-06T11:27:19;9.07;;;4.35;;
46643;SDS011;32371;51.032;5.816;2024-01-06T11:29:45;14.38;;;4.47;;
46643;SDS011;32371;51.032;5.816;2024-01-06T11:34:53;6.63;;;3.72;;
46643;SDS011;32371;51.032;5.816;2024-01-06T11:38:03;5.45;;;3.35;;
46643;SDS011;32371;51.032;5.816;2024-01-06T11:43:01;9.32;;;4.20;;
46643;SDS011;32371;51.032;5.816;2024-01-06T11:45:28;8.82;;;4.25;;
46643;SDS011;32371;51.032;5.816;2024-01-06T11:47:55;8.27;;;4.03;;
46643;SDS011;32371;51.032;5.816;2024-01-06T11:50:24;9.05;;;3.97;;
46643;SDS011;32371;51.032;5.816;2024-01-06T11:52:50;8.18;;;3.85;;
46643;SDS011;32371;51.032;5.816;2024-01-06T11:55:17;6.45;;;3.63;;
46643;SDS011;32371;51.032;5.816;2024-01-06T11:57:43;9.90;;;4.40;;
46643;SDS011;32371;51.032;5.816;2024-01-06T12:00:09;8.80;;;4.35;;
46643;SDS011;32371;51.032;5.816;2024-01-06T12:02:35;7.45;;;4.07;;
46643;SDS011;32371;51.032;5.816;2024-01-06T12:05:00;8.13;;;4.60;;
46643;SDS011;32371;51.032;5.816;2024-01-06T12:07:26;6.35;;;4.40;;
46643;SDS011;32371;51.032;5.816;2024-01-06T12:09:51;9.57;;;4.55;;
46643;SDS011;32371;51.032;5.816;2024-01-06T12:12:26;9.30;;;4.85;;
46643;SDS011;32371;51.032;5.816;2024-01-06T12:14:51;9.10;;;4.63;;
46643;SDS011;32371;51.032;5.816;2024-01-06T12:17:17;10.15;;;4.47;;
46643;SDS011;32371;51.032;5.816;2024-01-06T12:19:42;11.35;;;4.97;;
46643;SDS011;32371;51.032;5.816;2024-01-06T12:22:10;11.68;;;5.35;;
46643;SDS011;32371;51.032;5.816;2024-01-06T12:24:36;9.40;;;4.53;;
46643;SDS011;32371;51.032;5.816;2024-01-06T12:27:02;10.35;;;4.95;;
46643;SDS011;32371;51.032;5.816;2024-01-06T12:29:28;11.20;;;4.88;;
46643;SDS011;32371;51.032;5.816;2024-01-06T12:31:54;12.65;;;4.90;;
46643;SDS011;32371;51.032;5.816;2024-01-06T12:34:20;11.02;;;5.22;;
46643;SDS011;32371;51.032;5.816;2024-01-06T12:36:45;8.80;;;4.45;;
46643;SDS011;32371;51.032;5.816;2024-01-06T12:39:12;9.13;;;5.35;;
46643;SDS011;32371;51.032;5.816;2024-01-06T12:41:38;8.80;;;5.15;;
46643;SDS011;32371;51.032;5.816;2024-01-06T12:44:04;11.18;;;4.72;;
46643;SDS011;32371;51.032;5.816;2024-01-06T12:46:29;7.40;;;4.43;;
46643;SDS011;32371;51.032;5.816;2024-01-06T12:48:55;8.98;;;3.97;;
46643;SDS011;32371;51.032;5.816;2024-01-06T12:51:20;9.60;;;4.05;;
46643;SDS011;32371;51.032;5.816;2024-01-06T12:53:46;7.93;;;4.05;;
46643;SDS011;32371;51.032;5.816;2024-01-06T12:56:11;7.00;;;3.92;;
46643;SDS011;32371;51.032;5.816;2024-01-06T12:58:39;9.73;;;4.95;;
46643;SDS011;32371;51.032;5.816;2024-01-06T13:01:05;9.20;;;4.68;;
46643;SDS011;32371;51.032;5.816;2024-01-06T13:03:32;9.95;;;3.85;;
46643;SDS011;32371;51.032;5.816;2024-01-06T13:05:57;9.15;;;4.50;;
46643;SDS011;32371;51.032;5.816;2024-01-06T13:08:23;8.27;;;4.88;;
46643;SDS011;32371;51.032;5.816;2024-01-06T13:10:48;9.20;;;5.35;;
46643;SDS011;32371;51.032;5.816;2024-01-06T13:13:13;6.25;;;4.15;;
46643;SDS011;32371;51.032;5.816;2024-01-06T13:15:40;6.82;;;4.30;;
46643;SDS011;32371;51.032;5.816;2024-01-06T13:18:05;11.07;;;5.03;;
46643;SDS011;32371;51.032;5.816;2024-01-06T13:20:31;9.80;;;4.10;;
46643;SDS011;32371;51.032;5.816;2024-01-06T13:22:57;8.82;;;4.47;;
46643;SDS011;32371;51.032;5.816;2024-01-06T13:25:22;10.77;;;4.20;;
46643;SDS011;32371;51.032;5.816;2024-01-06T13:27:48;7.07;;;4.60;;
46643;SDS011;32371;51.032;5.816;2024-01-06T13:30:14;9.77;;;4.80;;
46643;SDS011;32371;51.032;5.816;2024-01-06T13:32:40;11.48;;;4.18;;
46643;SDS011;32371;51.032;5.816;2024-01-06T13:35:06;9.35;;;5.22;;
46643;SDS011;32371;51.032;5.816;2024-01-06T13:37:32;8.30;;;4.82;;
46643;SDS011;32371;51.032;5.816;2024-01-06T13:39:57;10.85;;;4.88;;
46643;SDS011;32371;51.032;5.816;2024-01-06T13:42:23;11.10;;;4.65;;
46643;SDS011;32371;51.032;5.816;2024-01-06T13:44:48;9.48;;;4.63;;
46643;SDS011;32371;51.032;5.816;2024-01-06T13:47:14;8.57;;;4.43;;
46643;SDS011;32371;51.032;5.816;2024-01-06T13:49:41;8.48;;;5.20;;
46643;SDS011;32371;51.032;5.816;2024-01-06T13:52:06;9.40;;;4.88;;
46643;SDS011;32371;51.032;5.816;2024-01-06T13:54:35;8.00;;;4.30;;
46643;SDS011;32371;51.032;5.816;2024-01-06T13:57:00;8.75;;;4.50;;
46643;SDS011;32371;51.032;5.816;2024-01-06T13:59:26;8.10;;;4.90;;
46643;SDS011;32371;51.032;5.816;2024-01-06T14:01:51;11.07;;;5.25;;
46643;SDS011;32371;51.032;5.816;2024-01-06T14:04:17;9.45;;;4.70;;
46643;SDS011;32371;51.032;5.816;2024-01-06T14:06:42;10.23;;;4.55;;
46643;SDS011;32371;51.032;5.816;2024-01-06T14:09:08;10.43;;;4.53;;
46643;SDS011;32371;51.032;5.816;2024-01-06T14:11:34;7.15;;;3.85;;
46643;SDS011;32371;51.032;5.816;2024-01-06T14:13:59;8.38;;;4.25;;
46643;SDS011;32371;51.032;5.816;2024-01-06T14:16:25;6.43;;;4.20;;
46643;SDS011;32371;51.032;5.816;2024-01-06T14:18:50;7.80;;;3.67;;
46643;SDS011;32371;51.032;5.816;2024-01-06T14:21:15;8.20;;;4.45;;
46643;SDS011;32371;51.032;5.816;2024-01-06T14:23:44;5.85;;;3.50;;
46643;SDS011;32371;51.032;5.816;2024-01-06T14:26:15;9.40;;;3.67;;
46643;SDS011;32371;51.032;5.816;2024-01-06T14:28:48;7.25;;;3.78;;
46643;SDS011;32371;51.032;5.816;2024-01-06T14:31:14;8.43;;;3.95;;
46643;SDS011;32371;51.032;5.816;2024-01-06T14:33:39;7.15;;;3.13;;
46643;SDS011;32371;51.032;5.816;2024-01-06T14:36:04;5.45;;;3.47;;
46643;SDS011;32371;51.032;5.816;2024-01-06T14:38:31;7.60;;;3.65;;